sensor_id;sensor_type;location;lat;lon;timestamp;pressure;altitude;pressure_sealevel;temperature;humidity
71126;BME280;58785;55.566;38.058;2023-03-04T00:01:37;98658.84;;;-0.29;71.84
71126;BME280;58785;55.566;38.058;2023-03-04T00:04:02;98672.78;;;-0.17;71.60
71126;BME280;58785;55.566;38.058;2023-03-04T00:06:28;98668.16;;;-0.14;71.73
71126;BME280;58785;55.566;38.058;2023-03-04T00:08:54;98661.00;;;-0.12;71.73
71126;BME280;58785;55.566;38.058;2023-03-04T00:11:20;98662.34;;;-0.06;71.59
71126;BME280;58785;55.566;38.058;2023-03-04T00:13:47;98655.78;;;-0.01;71.90
71126;BME280;58785;55.566;38.058;2023-03-04T00:16:13;98652.22;;;0.01;71.83
71126;BME280;58785;55.566;38.058;2023-03-04T00:18:39;98645.41;;;-0.02;71.48
71126;BME280;58785;55.566;38.058;2023-03-04T00:21:05;98632.44;;;-0.04;71.60
71126;BME280;58785;55.566;38.058;2023-03-04T00:23:30;98630.66;;;-0.03;71.73
71126;BME280;58785;55.566;38.058;2023-03-04T00:25:56;98633.28;;;-0.03;71.87
71126;BME280;58785;55.566;38.058;2023-03-04T00:28:22;98622.66;;;-0.02;72.14
71126;BME280;58785;55.566;38.058;2023-03-04T00:30:47;98621.97;;;-0.04;72.13
71126;BME280;58785;55.566;38.058;2023-03-04T00:33:13;98617.56;;;-0.03;72.02
71126;BME280;58785;55.566;38.058;2023-03-04T00:35:39;98608.97;;;-0.05;72.01
71126;BME280;58785;55.566;38.058;2023-03-04T00:38:04;98607.19;;;-0.05;72.18
71126;BME280;58785;55.566;38.058;2023-03-04T00:40:30;98605.78;;;-0.09;72.04
71126;BME280;58785;55.566;38.058;2023-03-04T00:42:56;98606.81;;;-0.11;72.31
71126;BME280;58785;55.566;38.058;2023-03-04T00:45:21;98595.03;;;-0.17;72.31
71126;BME280;58785;55.566;38.058;2023-03-04T00:47:47;98610.41;;;-0.12;72.14
71126;BME280;58785;55.566;38.058;2023-03-04T00:50:12;98604.94;;;-0.09;72.52
71126;BME280;58785;55.566;38.058;2023-03-04T00:52:38;98593.72;;;-0.11;72.51
71126;BME280;58785;55.566;38.058;2023-03-04T00:55:05;98588.59;;;-0.13;72.27
71126;BME280;58785;55.566;38.058;2023-03-04T00:57:31;98591.59;;;-0.06;72.25
71126;BME280;58785;55.566;38.058;2023-03-04T00:59:56;98599.34;;;-0.05;72.11
71126;BME280;58785;55.566;38.058;2023-03-04T01:02:22;98587.06;;;-0.04;72.31
71126;BME280;58785;55.566;38.058;2023-03-04T01:04:47;98592.44;;;-0.06;72.25
71126;BME280;58785;55.566;38.058;2023-03-04T01:07:13;98587.44;;;-0.09;72.54
71126;BME280;58785;55.566;38.058;2023-03-04T01:09:39;98580.88;;;-0.14;72.58
71126;BME280;58785;55.566;38.058;2023-03-04T01:12:04;98582.53;;;-0.24;72.80
71126;BME280;58785;55.566;38.058;2023-03-04T01:14:30;98582.91;;;-0.29;72.95
71126;BME280;58785;55.566;38.058;2023-03-04T01:16:56;98575.00;;;-0.40;72.99
71126;BME280;58785;55.566;38.058;2023-03-04T01:19:22;98572.16;;;-0.48;73.17
71126;BME280;58785;55.566;38.058;2023-03-04T01:21:47;98572.28;;;-0.50;73.42
71126;BME280;58785;55.566;38.058;2023-03-04T01:24:13;98573.56;;;-0.55;73.15
71126;BME280;58785;55.566;38.058;2023-03-04T01:26:38;98582.22;;;-0.55;73.39
71126;BME280;58785;55.566;38.058;2023-03-04T01:29:04;98582.81;;;-0.51;73.19
71126;BME280;58785;55.566;38.058;2023-03-04T01:31:29;98570.34;;;-0.59;73.43
71126;BME280;58785;55.566;38.058;2023-03-04T01:33:55;98577.94;;;-0.56;73.45
71126;BME280;58785;55.566;38.058;2023-03-04T01:36:21;98577.56;;;-0.63;72.96
71126;BME280;58785;55.566;38.058;2023-03-04T01:38:46;98576.97;;;-0.66;73.53
71126;BME280;58785;55.566;38.058;2023-03-04T01:41:13;98572.81;;;-0.69;73.92
71126;BME280;58785;55.566;38.058;2023-03-04T01:43:41;98567.31;;;-0.77;73.67
71126;BME280;58785;55.566;38.058;2023-03-04T01:46:09;98571.22;;;-0.71;73.65
71126;BME280;58785;55.566;38.058;2023-03-04T01:48:37;98559.22;;;-0.74;73.76
71126;BME280;58785;55.566;38.058;2023-03-04T01:51:11;98561.28;;;-0.66;73.77
71126;BME280;58785;55.566;38.058;2023-03-04T01:53:38;98567.94;;;-0.62;73.95
71126;BME280;58785;55.566;38.058;2023-03-04T01:56:15;98555.78;;;-0.63;73.78
71126;BME280;58785;55.566;38.058;2023-03-04T01:58:41;98558.22;;;-0.60;73.82
71126;BME280;58785;55.566;38.058;2023-03-04T02:01:10;98565.56;;;-0.54;73.73
71126;BME280;58785;55.566;38.058;2023-03-04T02:03:36;98559.38;;;-0.53;73.87
71126;BME280;58785;55.566;38.058;2023-03-04T02:06:02;98550.00;;;-0.55;73.81
71126;BME280;58785;55.566;38.058;2023-03-04T02:08:28;98557.84;;;-0.44;73.79
71126;BME280;58785;55.566;38.058;2023-03-04T02:10:54;98551.66;;;-0.43;73.97
71126;BME280;58785;55.566;38.058;2023-03-04T02:13:20;98555.00;;;-0.41;73.64
71126;BME280;58785;55.566;38.058;2023-03-04T02:15:46;98551.56;;;-0.42;73.83
71126;BME280;58785;55.566;38.058;2023-03-04T02:18:18;98554.66;;;-0.37;73.94
71126;BME280;58785;55.566;38.058;2023-03-04T02:20:59;98558.50;;;-0.30;73.71
71126;BME280;58785;55.566;38.058;2023-03-04T02:26:15;98553.84;;;-0.15;73.57
71126;BME280;58785;55.566;38.058;2023-03-04T02:28:42;98523.72;;;-0.20;73.47
71126;BME280;58785;55.566;38.058;2023-03-04T02:31:28;98541.94;;;-0.08;74.12
71126;BME280;58785;55.566;38.058;2023-03-04T02:33:56;98525.97;;;-0.05;73.63
71126;BME280;58785;55.566;38.058;2023-03-04T02:36:23;98527.31;;;0.01;73.74
71126;BME280;58785;55.566;38.058;2023-03-04T02:38:51;98529.66;;;0.04;73.64
71126;BME280;58785;55.566;38.058;2023-03-04T02:41:19;98517.28;;;0.06;73.81
71126;BME280;58785;55.566;38.058;2023-03-04T02:43:48;98518.38;;;0.04;73.61
71126;BME280;58785;55.566;38.058;2023-03-04T02:46:14;98514.41;;;0.09;73.90
71126;BME280;58785;55.566;38.058;2023-03-04T02:48:39;98502.13;;;0.10;73.78
71126;BME280;58785;55.566;38.058;2023-03-04T02:51:05;98494.75;;;0.15;73.90
71126;BME280;58785;55.566;38.058;2023-03-04T02:53:31;98494.88;;;0.24;73.69
71126;BME280;58785;55.566;38.058;2023-03-04T02:55:56;98499.16;;;0.25;73.35
71126;BME280;58785;55.566;38.058;2023-03-04T02:58:22;98492.94;;;0.26;73.73
71126;BME280;58785;55.566;38.058;2023-03-04T03:00:47;98499.50;;;0.32;73.84
71126;BME280;58785;55.566;38.058;2023-03-04T03:03:13;98486.16;;;0.24;73.79
71126;BME280;58785;55.566;38.058;2023-03-04T03:05:39;98483.53;;;0.24;73.86
71126;BME280;58785;55.566;38.058;2023-03-04T03:08:05;98472.94;;;0.25;73.95
71126;BME280;58785;55.566;38.058;2023-03-04T03:10:31;98473.91;;;0.24;73.78
71126;BME280;58785;55.566;38.058;2023-03-04T03:12:56;98473.63;;;0.27;74.34
71126;BME280;58785;55.566;38.058;2023-03-04T03:15:22;98463.84;;;0.29;74.17
71126;BME280;58785;55.566;38.058;2023-03-04T03:17:48;98464.13;;;0.26;73.94
71126;BME280;58785;55.566;38.058;2023-03-04T03:20:14;98455.78;;;0.33;74.10
71126;BME280;58785;55.566;38.058;2023-03-04T03:22:41;98464.59;;;0.32;74.40
71126;BME280;58785;55.566;38.058;2023-03-04T03:25:07;98449.91;;;0.29;74.64
71126;BME280;58785;55.566;38.058;2023-03-04T03:27:34;98452.53;;;0.29;74.70
71126;BME280;58785;55.566;38.058;2023-03-04T03:29:59;98442.31;;;0.26;74.32
71126;BME280;58785;55.566;38.058;2023-03-04T03:32:25;98423.63;;;0.19;74.38
71126;BME280;58785;55.566;38.058;2023-03-04T03:34:51;98441.22;;;0.28;74.42
71126;BME280;58785;55.566;38.058;2023-03-04T03:37:17;98440.53;;;0.26;74.48
71126;BME280;58785;55.566;38.058;2023-03-04T03:39:42;98425.38;;;0.30;74.44
71126;BME280;58785;55.566;38.058;2023-03-04T03:42:08;98432.31;;;0.31;74.61
71126;BME280;58785;55.566;38.058;2023-03-04T03:44:34;98431.09;;;0.35;74.35
71126;BME280;58785;55.566;38.058;2023-03-04T03:46:59;98429.16;;;0.37;74.36
71126;BME280;58785;55.566;38.058;2023-03-04T03:49:25;98427.00;;;0.42;74.08
71126;BME280;58785;55.566;38.058;2023-03-04T03:51:50;98437.03;;;0.37;74.20
71126;BME280;58785;55.566;38.058;2023-03-04T03:54:16;98436.91;;;0.39;74.29
71126;BME280;58785;55.566;38.058;2023-03-04T03:56:42;98418.81;;;0.36;74.10
71126;BME280;58785;55.566;38.058;2023-03-04T03:59:07;98429.38;;;0.45;74.14
71126;BME280;58785;55.566;38.058;2023-03-04T04:01:33;98427.84;;;0.43;74.14
71126;BME280;58785;55.566;38.058;2023-03-04T04:03:59;98412.72;;;0.35;73.99
71126;BME280;58785;55.566;38.058;2023-03-04T04:06:25;98412.47;;;0.38;74.13
71126;BME280;58785;55.566;38.058;2023-03-04T04:08:51;98415.44;;;0.45;73.92
71126;BME280;58785;55.566;38.058;2023-03-04T04:11:17;98411.50;;;0.50;73.82
71126;BME280;58785;55.566;38.058;2023-03-04T04:13:43;98407.31;;;0.48;74.03
71126;BME280;58785;55.566;38.058;2023-03-04T04:16:09;98397.78;;;0.47;74.22
71126;BME280;58785;55.566;38.058;2023-03-04T04:18:35;98391.59;;;0.48;73.91
71126;BME280;58785;55.566;38.058;2023-03-04T04:21:02;98396.59;;;0.51;73.94
71126;BME280;58785;55.566;38.058;2023-03-04T04:23:27;98391.78;;;0.56;74.09
71126;BME280;58785;55.566;38.058;2023-03-04T04:25:54;98383.56;;;0.61;74.01
71126;BME280;58785;55.566;38.058;2023-03-04T04:28:20;98378.41;;;0.59;73.99
71126;BME280;58785;55.566;38.058;2023-03-04T04:30:45;98387.75;;;0.52;73.97
71126;BME280;58785;55.566;38.058;2023-03-04T04:33:11;98391.91;;;0.54;73.95
71126;BME280;58785;55.566;38.058;2023-03-04T04:35:37;98382.97;;;0.57;73.80
71126;BME280;58785;55.566;38.058;2023-03-04T04:38:04;98389.16;;;0.56;73.83
71126;BME280;58785;55.566;38.058;2023-03-04T04:40:30;98377.28;;;0.52;73.93
71126;BME280;58785;55.566;38.058;2023-03-04T04:42:56;98373.44;;;0.56;73.79
71126;BME280;58785;55.566;38.058;2023-03-04T04:45:22;98383.41;;;0.62;73.87
71126;BME280;58785;55.566;38.058;2023-03-04T04:47:50;98378.25;;;0.72;73.43
71126;BME280;58785;55.566;38.058;2023-03-04T04:50:16;98388.06;;;0.79;73.84
71126;BME280;58785;55.566;38.058;2023-03-04T04:52:41;98388.06;;;0.79;73.33
71126;BME280;58785;55.566;38.058;2023-03-04T04:55:07;98382.53;;;0.73;73.73
71126;BME280;58785;55.566;38.058;2023-03-04T04:57:33;98384.50;;;0.80;73.84
71126;BME280;58785;55.566;38.058;2023-03-04T04:59:59;98378.31;;;0.81;73.32
71126;BME280;58785;55.566;38.058;2023-03-04T05:02:25;98387.16;;;0.90;73.07
71126;BME280;58785;55.566;38.058;2023-03-04T05:04:50;98383.84;;;0.88;73.54
71126;BME280;58785;55.566;38.058;2023-03-04T05:07:16;98390.38;;;0.94;73.66
71126;BME280;58785;55.566;38.058;2023-03-04T05:09:41;98382.84;;;1.00;73.29
71126;BME280;58785;55.566;38.058;2023-03-04T05:12:07;98382.44;;;1.05;73.23
71126;BME280;58785;55.566;38.058;2023-03-04T05:14:33;98387.19;;;1.11;73.36
71126;BME280;58785;55.566;38.058;2023-03-04T05:16:58;98399.06;;;1.15;73.01
71126;BME280;58785;55.566;38.058;2023-03-04T05:19:24;98389.38;;;1.15;72.91
71126;BME280;58785;55.566;38.058;2023-03-04T05:21:50;98381.78;;;1.12;73.24
71126;BME280;58785;55.566;38.058;2023-03-04T05:24:15;98383.31;;;1.15;73.11
71126;BME280;58785;55.566;38.058;2023-03-04T05:26:43;98391.75;;;1.19;73.17
71126;BME280;58785;55.566;38.058;2023-03-04T05:29:09;98377.78;;;1.18;72.81
71126;BME280;58785;55.566;38.058;2023-03-04T05:31:35;98377.69;;;1.29;72.75
71126;BME280;58785;55.566;38.058;2023-03-04T05:34:00;98377.63;;;1.40;72.30
71126;BME280;58785;55.566;38.058;2023-03-04T05:36:26;98369.06;;;1.48;72.12
71126;BME280;58785;55.566;38.058;2023-03-04T05:42:32;98364.31;;;1.72;71.88
71126;BME280;58785;55.566;38.058;2023-03-04T05:44:57;98364.75;;;1.87;71.60
71126;BME280;58785;55.566;38.058;2023-03-04T05:47:23;98363.25;;;1.94;71.39
71126;BME280;58785;55.566;38.058;2023-03-04T05:49:49;98350.25;;;1.93;71.31
71126;BME280;58785;55.566;38.058;2023-03-04T05:52:14;98361.47;;;2.05;71.11
71126;BME280;58785;55.566;38.058;2023-03-04T05:54:40;98350.53;;;2.19;70.56
71126;BME280;58785;55.566;38.058;2023-03-04T05:57:05;98352.47;;;2.36;70.60
71126;BME280;58785;55.566;38.058;2023-03-04T05:59:31;98362.44;;;2.52;69.98
71126;BME280;58785;55.566;38.058;2023-03-04T06:01:57;98360.88;;;2.59;70.49
71126;BME280;58785;55.566;38.058;2023-03-04T06:04:22;98347.34;;;2.54;70.00
71126;BME280;58785;55.566;38.058;2023-03-04T06:10:28;98328.78;;;2.55;70.07
71126;BME280;58785;55.566;38.058;2023-03-04T06:12:54;98339.56;;;2.72;69.93
71126;BME280;58785;55.566;38.058;2023-03-04T06:15:20;98337.84;;;2.90;69.41
71126;BME280;58785;55.566;38.058;2023-03-04T06:17:45;98340.16;;;3.12;68.71
71126;BME280;58785;55.566;38.058;2023-03-04T06:20:11;98338.41;;;3.31;68.39
71126;BME280;58785;55.566;38.058;2023-03-04T06:22:37;98334.75;;;3.41;67.99
71126;BME280;58785;55.566;38.058;2023-03-04T06:25:04;98330.06;;;3.35;67.92
71126;BME280;58785;55.566;38.058;2023-03-04T06:27:29;98335.72;;;3.40;68.11
71126;BME280;58785;55.566;38.058;2023-03-04T06:29:55;98329.25;;;3.35;67.77
71126;BME280;58785;55.566;38.058;2023-03-04T06:32:21;98331.03;;;3.34;68.38
71126;BME280;58785;55.566;38.058;2023-03-04T06:34:47;98329.03;;;3.46;68.12
71126;BME280;58785;55.566;38.058;2023-03-04T06:37:12;98325.53;;;3.55;67.53
71126;BME280;58785;55.566;38.058;2023-03-04T06:39:38;98312.41;;;3.45;67.27
71126;BME280;58785;55.566;38.058;2023-03-04T06:42:03;98321.00;;;3.47;67.55
71126;BME280;58785;55.566;38.058;2023-03-04T06:44:29;98322.84;;;3.37;67.41
71126;BME280;58785;55.566;38.058;2023-03-04T06:46:55;98309.56;;;3.29;67.33
71126;BME280;58785;55.566;38.058;2023-03-04T06:49:20;98304.28;;;3.29;67.28
71126;BME280;58785;55.566;38.058;2023-03-04T06:51:46;98314.97;;;3.28;67.26
71126;BME280;58785;55.566;38.058;2023-03-04T06:54:12;98301.25;;;3.34;67.07
71126;BME280;58785;55.566;38.058;2023-03-04T06:56:37;98306.63;;;3.42;67.29
71126;BME280;58785;55.566;38.058;2023-03-04T06:59:03;98302.53;;;3.47;66.63
71126;BME280;58785;55.566;38.058;2023-03-04T07:01:29;98294.22;;;3.52;66.53
71126;BME280;58785;55.566;38.058;2023-03-04T07:03:55;98286.84;;;3.56;66.40
71126;BME280;58785;55.566;38.058;2023-03-04T07:06:24;98301.13;;;3.53;66.33
71126;BME280;58785;55.566;38.058;2023-03-04T07:08:50;98285.28;;;3.63;66.39
71126;BME280;58785;55.566;38.058;2023-03-04T07:11:16;98296.59;;;3.91;65.70
71126;BME280;58785;55.566;38.058;2023-03-04T07:13:43;98291.22;;;4.00;65.52
71126;BME280;58785;55.566;38.058;2023-03-04T07:16:12;98290.19;;;4.11;65.22
71126;BME280;58785;55.566;38.058;2023-03-04T07:18:38;98282.09;;;4.30;64.74
71126;BME280;58785;55.566;38.058;2023-03-04T07:21:05;98271.34;;;4.50;64.34
71126;BME280;58785;55.566;38.058;2023-03-04T07:23:31;98272.47;;;4.65;63.79
71126;BME280;58785;55.566;38.058;2023-03-04T07:25:57;98274.44;;;4.63;63.84
71126;BME280;58785;55.566;38.058;2023-03-04T07:28:22;98257.75;;;4.63;63.93
71126;BME280;58785;55.566;38.058;2023-03-04T07:30:48;98256.09;;;4.61;63.82
71126;BME280;58785;55.566;38.058;2023-03-04T07:33:14;98242.09;;;4.69;63.96
71126;BME280;58785;55.566;38.058;2023-03-04T07:35:40;98245.84;;;4.84;63.62
71126;BME280;58785;55.566;38.058;2023-03-04T07:38:06;98245.19;;;4.90;63.23
71126;BME280;58785;55.566;38.058;2023-03-04T07:40:32;98242.47;;;5.08;62.84
71126;BME280;58785;55.566;38.058;2023-03-04T07:42:58;98240.78;;;5.33;62.45
71126;BME280;58785;55.566;38.058;2023-03-04T07:45:24;98242.63;;;5.57;61.94
71126;BME280;58785;55.566;38.058;2023-03-04T07:47:50;98235.44;;;6.00;60.73
71126;BME280;58785;55.566;38.058;2023-03-04T07:50:17;98232.34;;;6.13;60.45
71126;BME280;58785;55.566;38.058;2023-03-04T07:52:44;98224.19;;;6.30;60.43
71126;BME280;58785;55.566;38.058;2023-03-04T07:55:12;98218.41;;;6.51;59.78
71126;BME280;58785;55.566;38.058;2023-03-04T07:57:40;98222.38;;;6.47;59.31
71126;BME280;58785;55.566;38.058;2023-03-04T08:00:07;98228.66;;;6.30;59.45
71126;BME280;58785;55.566;38.058;2023-03-04T08:02:33;98224.72;;;6.18;60.30
71126;BME280;58785;55.566;38.058;2023-03-04T08:04:58;98225.38;;;6.20;60.38
71126;BME280;58785;55.566;38.058;2023-03-04T08:07:24;98223.41;;;6.14;59.56
71126;BME280;58785;55.566;38.058;2023-03-04T08:09:50;98212.50;;;5.92;60.13
71126;BME280;58785;55.566;38.058;2023-03-04T08:12:15;98223.84;;;5.85;60.24
71126;BME280;58785;55.566;38.058;2023-03-04T08:14:41;98219.03;;;5.80;60.73
71126;BME280;58785;55.566;38.058;2023-03-04T08:17:07;98201.38;;;5.72;59.99
71126;BME280;58785;55.566;38.058;2023-03-04T08:19:34;98205.16;;;5.78;59.83
71126;BME280;58785;55.566;38.058;2023-03-04T08:22:00;98203.16;;;5.80;60.36
71126;BME280;58785;55.566;38.058;2023-03-04T08:24:27;98195.91;;;5.74;60.15
71126;BME280;58785;55.566;38.058;2023-03-04T08:26:53;98195.25;;;5.72;59.92
71126;BME280;58785;55.566;38.058;2023-03-04T08:29:21;98201.69;;;5.69;59.59
71126;BME280;58785;55.566;38.058;2023-03-04T08:31:48;98196.03;;;5.56;59.57
71126;BME280;58785;55.566;38.058;2023-03-04T08:34:14;98187.94;;;5.58;59.95
71126;BME280;58785;55.566;38.058;2023-03-04T08:36:41;98189.28;;;5.62;59.43
71126;BME280;58785;55.566;38.058;2023-03-04T08:39:11;98186.00;;;5.76;59.69
71126;BME280;58785;55.566;38.058;2023-03-04T08:41:37;98177.22;;;5.75;59.19
71126;BME280;58785;55.566;38.058;2023-03-04T08:44:04;98184.66;;;5.88;58.97
71126;BME280;58785;55.566;38.058;2023-03-04T08:46:29;98175.75;;;5.73;59.21
71126;BME280;58785;55.566;38.058;2023-03-04T08:48:55;98180.69;;;5.68;59.00
71126;BME280;58785;55.566;38.058;2023-03-04T08:51:21;98177.38;;;5.58;59.64
71126;BME280;58785;55.566;38.058;2023-03-04T08:53:47;98177.22;;;5.59;59.78
71126;BME280;58785;55.566;38.058;2023-03-04T08:56:13;98178.88;;;5.68;59.59
71126;BME280;58785;55.566;38.058;2023-03-04T08:58:39;98180.56;;;5.94;59.46
71126;BME280;58785;55.566;38.058;2023-03-04T09:01:08;98163.69;;;6.19;58.97
71126;BME280;58785;55.566;38.058;2023-03-04T09:03:34;98162.50;;;6.30;58.27
71126;BME280;58785;55.566;38.058;2023-03-04T09:06:01;98157.03;;;6.40;58.73
71126;BME280;58785;55.566;38.058;2023-03-04T09:08:28;98159.66;;;6.48;58.72
71126;BME280;58785;55.566;38.058;2023-03-04T09:10:54;98143.09;;;6.54;58.57
71126;BME280;58785;55.566;38.058;2023-03-04T09:13:22;98146.84;;;6.68;58.61
71126;BME280;58785;55.566;38.058;2023-03-04T09:15:50;98135.25;;;6.69;57.89
71126;BME280;58785;55.566;38.058;2023-03-04T09:18:17;98141.34;;;6.77;57.85
71126;BME280;58785;55.566;38.058;2023-03-04T09:20:44;98125.03;;;6.66;57.49
71126;BME280;58785;55.566;38.058;2023-03-04T09:23:09;98117.50;;;6.77;58.25
71126;BME280;58785;55.566;38.058;2023-03-04T09:25:36;98116.31;;;6.88;57.85
71126;BME280;58785;55.566;38.058;2023-03-04T09:28:02;98119.06;;;7.03;57.70
71126;BME280;58785;55.566;38.058;2023-03-04T09:30:28;98113.19;;;7.15;57.45
71126;BME280;58785;55.566;38.058;2023-03-04T09:32:54;98108.28;;;7.04;57.12
71126;BME280;58785;55.566;38.058;2023-03-04T09:35:21;98102.31;;;6.71;57.21
71126;BME280;58785;55.566;38.058;2023-03-04T09:37:46;98100.53;;;6.63;58.42
71126;BME280;58785;55.566;38.058;2023-03-04T09:40:22;98095.56;;;6.60;57.77
71126;BME280;58785;55.566;38.058;2023-03-04T09:43:03;98090.44;;;6.59;58.63
71126;BME280;58785;55.566;38.058;2023-03-04T09:45:42;98089.50;;;6.52;58.54
71126;BME280;58785;55.566;38.058;2023-03-04T09:48:15;98091.53;;;6.42;58.39
71126;BME280;58785;55.566;38.058;2023-03-04T09:54:07;98069.78;;;6.54;57.90
71126;BME280;58785;55.566;38.058;2023-03-04T09:56:37;98072.00;;;6.43;58.48
71126;BME280;58785;55.566;38.058;2023-03-04T10:01:43;98063.09;;;6.27;58.13
71126;BME280;58785;55.566;38.058;2023-03-04T10:06:56;98049.09;;;6.11;58.30
71126;BME280;58785;55.566;38.058;2023-03-04T10:09:46;98046.13;;;6.05;58.22
71126;BME280;58785;55.566;38.058;2023-03-04T10:12:18;98039.19;;;6.04;58.63
71126;BME280;58785;55.566;38.058;2023-03-04T10:14:51;98039.69;;;6.08;57.94
71126;BME280;58785;55.566;38.058;2023-03-04T10:22:51;98014.63;;;5.71;58.56
71126;BME280;58785;55.566;38.058;2023-03-04T10:25:22;98018.75;;;5.74;58.68
71126;BME280;58785;55.566;38.058;2023-03-04T10:27:58;98007.34;;;5.73;58.41
71126;BME280;58785;55.566;38.058;2023-03-04T10:33:19;97992.84;;;6.17;57.17
71126;BME280;58785;55.566;38.058;2023-03-04T10:38:53;97973.16;;;6.50;57.02
71126;BME280;58785;55.566;38.058;2023-03-04T10:41:21;97966.53;;;6.54;56.40
71126;BME280;58785;55.566;38.058;2023-03-04T10:43:50;97976.72;;;6.66;57.24
71126;BME280;58785;55.566;38.058;2023-03-04T10:46:25;97974.72;;;6.68;57.02
71126;BME280;58785;55.566;38.058;2023-03-04T10:48:52;97969.66;;;6.58;56.59
71126;BME280;58785;55.566;38.058;2023-03-04T10:51:28;97962.97;;;6.39;57.56
71126;BME280;58785;55.566;38.058;2023-03-04T10:54:07;97964.28;;;6.12;58.23
71126;BME280;58785;55.566;38.058;2023-03-04T11:01:50;97957.22;;;5.80;58.41
71126;BME280;58785;55.566;38.058;2023-03-04T11:04:18;97940.78;;;5.62;58.68
71126;BME280;58785;55.566;38.058;2023-03-04T11:06:44;97947.22;;;5.59;59.09
71126;BME280;58785;55.566;38.058;2023-03-04T11:09:27;97961.59;;;5.48;59.77
71126;BME280;58785;55.566;38.058;2023-03-04T11:11:57;97950.41;;;5.38;59.90
71126;BME280;58785;55.566;38.058;2023-03-04T11:14:27;97943.81;;;5.34;60.06
71126;BME280;58785;55.566;38.058;2023-03-04T11:17:00;97944.81;;;5.33;60.52
71126;BME280;58785;55.566;38.058;2023-03-04T11:19:56;97946.63;;;5.25;60.84
71126;BME280;58785;55.566;38.058;2023-03-04T11:22:23;97941.00;;;5.19;60.92
71126;BME280;58785;55.566;38.058;2023-03-04T11:24:56;97930.59;;;5.18;61.06
71126;BME280;58785;55.566;38.058;2023-03-04T11:27:29;97914.09;;;5.24;60.88
71126;BME280;58785;55.566;38.058;2023-03-04T11:30:24;97917.50;;;5.49;60.66
71126;BME280;58785;55.566;38.058;2023-03-04T11:32:52;97900.81;;;5.57;60.12
71126;BME280;58785;55.566;38.058;2023-03-04T11:35:22;97905.53;;;5.69;60.52
71126;BME280;58785;55.566;38.058;2023-03-04T11:37:57;97906.72;;;5.67;60.77
71126;BME280;58785;55.566;38.058;2023-03-04T11:43:22;97896.22;;;5.42;61.72
71126;BME280;58785;55.566;38.058;2023-03-04T11:57:47;97889.22;;;4.61;63.75
71126;BME280;58785;55.566;38.058;2023-03-04T12:03:23;97873.84;;;4.49;64.67
71126;BME280;58785;55.566;38.058;2023-03-04T12:22:11;97853.31;;;3.86;66.81
71126;BME280;58785;55.566;38.058;2023-03-04T12:30:02;97827.09;;;3.76;66.93
71126;BME280;58785;55.566;38.058;2023-03-04T12:35:13;97835.34;;;3.73;67.56
71126;BME280;58785;55.566;38.058;2023-03-04T12:43:40;97827.22;;;3.66;67.91
71126;BME280;58785;55.566;38.058;2023-03-04T12:46:17;97816.53;;;3.68;68.35
71126;BME280;58785;55.566;38.058;2023-03-04T12:56:45;97797.78;;;3.71;68.60
71126;BME280;58785;55.566;38.058;2023-03-04T12:59:18;97791.00;;;3.68;68.66
71126;BME280;58785;55.566;38.058;2023-03-04T13:07:25;97779.94;;;3.57;69.25
71126;BME280;58785;55.566;38.058;2023-03-04T13:10:06;97769.22;;;3.42;69.76
71126;BME280;58785;55.566;38.058;2023-03-04T13:12:52;97768.25;;;3.51;69.54
71126;BME280;58785;55.566;38.058;2023-03-04T13:25:31;97759.50;;;3.51;69.71
71126;BME280;58785;55.566;38.058;2023-03-04T13:41:14;97714.19;;;3.39;70.86
71126;BME280;58785;55.566;38.058;2023-03-04T13:43:59;97706.44;;;3.21;70.82
71126;BME280;58785;55.566;38.058;2023-03-04T13:48:58;97719.59;;;3.29;70.86
71126;BME280;58785;55.566;38.058;2023-03-04T13:51:39;97716.63;;;3.24;70.91
71126;BME280;58785;55.566;38.058;2023-03-04T13:54:30;97704.63;;;3.22;71.27
71126;BME280;58785;55.566;38.058;2023-03-04T13:59:31;97697.69;;;3.21;70.83
71126;BME280;58785;55.566;38.058;2023-03-04T14:02:13;97686.81;;;3.15;70.74
71126;BME280;58785;55.566;38.058;2023-03-04T14:04:54;97691.09;;;3.16;70.88
71126;BME280;58785;55.566;38.058;2023-03-04T14:07:24;97682.72;;;3.13;71.30
71126;BME280;58785;55.566;38.058;2023-03-04T14:12:38;97673.31;;;3.10;71.69
71126;BME280;58785;55.566;38.058;2023-03-04T14:17:44;97661.94;;;3.02;71.32
71126;BME280;58785;55.566;38.058;2023-03-04T14:20:24;97672.31;;;3.03;71.91
71126;BME280;58785;55.566;38.058;2023-03-04T14:22:51;97664.38;;;2.95;71.47
71126;BME280;58785;55.566;38.058;2023-03-04T14:25:21;97658.13;;;2.96;72.03
71126;BME280;58785;55.566;38.058;2023-03-04T14:27:48;97655.84;;;2.93;72.02
71126;BME280;58785;55.566;38.058;2023-03-04T14:30:25;97656.13;;;2.90;72.05
71126;BME280;58785;55.566;38.058;2023-03-04T14:32:52;97640.47;;;2.80;72.38
71126;BME280;58785;55.566;38.058;2023-03-04T14:35:21;97642.63;;;2.77;71.85
71126;BME280;58785;55.566;38.058;2023-03-04T14:40:27;97637.84;;;2.72;72.57
71126;BME280;58785;55.566;38.058;2023-03-04T14:43:17;97643.91;;;2.73;72.44
71126;BME280;58785;55.566;38.058;2023-03-04T14:45:44;97623.81;;;2.64;72.30
71126;BME280;58785;55.566;38.058;2023-03-04T14:48:24;97627.47;;;2.71;73.11
71126;BME280;58785;55.566;38.058;2023-03-04T14:50:53;97631.06;;;2.70;73.07
71126;BME280;58785;55.566;38.058;2023-03-04T14:53:22;97625.66;;;2.71;72.94
71126;BME280;58785;55.566;38.058;2023-03-04T14:56:07;97625.97;;;2.68;72.87
71126;BME280;58785;55.566;38.058;2023-03-04T14:58:38;97620.38;;;2.63;73.11
71126;BME280;58785;55.566;38.058;2023-03-04T15:04:06;97619.38;;;2.64;73.21
71126;BME280;58785;55.566;38.058;2023-03-04T15:06:52;97617.41;;;2.66;73.17
71126;BME280;58785;55.566;38.058;2023-03-04T15:09:23;97616.59;;;2.66;73.11
71126;BME280;58785;55.566;38.058;2023-03-04T15:12:01;97614.63;;;2.68;73.40
71126;BME280;58785;55.566;38.058;2023-03-04T15:14:47;97608.22;;;2.62;73.65
71126;BME280;58785;55.566;38.058;2023-03-04T15:17:25;97607.84;;;2.57;73.66
71126;BME280;58785;55.566;38.058;2023-03-04T15:20:11;97600.28;;;2.54;73.91